Time;durP1;ratioP1;P1;durP2;ratioP2;P2;SDS_P1;SDS_P2;PMS_P1;PMS_P2;Temp;Humidity;BMP_temperature;BMP_pressure;BME280_temperature;BME280_humidity;BME280_pressure;Samples;Min_cycle;Max_cycle;Signal;HPM_P1;HPM_P2
2023/08/29 19:54:47;;;;;;;5.73;1.50;;;20.00;98.20;;;;;;5057532;27;20552;-60
2023/08/29 19:57:14;;;;;;;1.93;1.50;;;19.90;98.20;;;;;;5063797;28;20198;-61
2023/08/29 19:59:41;;;;;;;2.10;1.60;;;19.90;98.30;;;;;;5059252;28;20209;-61
2023/08/29 20:02:09;;;;;;;3.10;1.80;;;19.90;98.40;;;;;;5058602;28;20193;-60
2023/08/29 20:04:36;;;;;;;5.13;1.97;;;19.90;98.40;;;;;;5060388;28;20281;-60
2023/08/29 20:07:03;;;;;;;5.23;1.53;;;19.90;98.40;;;;;;5059868;28;20220;-60
2023/08/29 20:09:31;;;;;;;3.23;1.50;;;19.90;98.50;;;;;;5055662;28;20201;-60
2023/08/29 20:11:58;;;;;;;7.77;1.77;;;19.90;98.50;;;;;;5062848;28;20237;-60
2023/08/29 20:14:28;;;;;;;6.27;2.10;;;19.90;98.50;;;;;;5057585;28;20231;-61
2023/08/29 20:16:58;;;;;;;4.80;2.00;;;19.90;98.50;;;;;;5059780;28;20638;-61
2023/08/29 20:19:25;;;;;;;2.70;1.60;;;19.90;98.60;;;;;;5063808;28;20677;-61
2023/08/29 20:21:52;;;;;;;2.23;1.80;;;20.00;98.60;;;;;;5057436;28;20201;-61
2023/08/29 20:24:20;;;;;;;3.87;1.47;;;19.90;98.60;;;;;;5060824;28;20208;-63
2023/08/29 20:26:47;;;;;;;5.77;1.53;;;19.90;98.60;;;;;;5059051;28;20207;-61
2023/08/29 20:29:16;;;;;;;1.67;1.47;;;19.90;98.60;;;;;;5055449;28;20542;-61
2023/08/29 20:31:43;;;;;;;3.30;1.70;;;20.00;98.70;;;;;;5052785;28;20216;-61
2023/08/29 20:34:10;;;;;;;3.87;1.77;;;19.90;98.70;;;;;;5055836;28;20412;-61
2023/08/29 20:36:38;;;;;;;3.83;1.80;;;19.90;98.70;;;;;;5059932;28;20232;-61
2023/08/29 20:39:06;;;;;;;3.33;1.90;;;19.90;98.70;;;;;;5057930;28;20706;-61
2023/08/29 20:41:33;;;;;;;5.67;1.57;;;20.00;98.70;;;;;;5053490;28;20187;-61
2023/08/29 20:44:00;;;;;;;4.80;2.40;;;20.00;98.70;;;;;;5054399;28;20235;-61
2023/08/29 20:46:27;;;;;;;2.73;2.27;;;20.00;98.70;;;;;;5058494;28;20198;-60
2023/08/29 20:48:54;;;;;;;4.87;2.60;;;20.00;98.70;;;;;;5058911;28;20690;-60
2023/08/29 20:51:21;;;;;;;2.77;2.23;;;20.00;98.70;;;;;;5052665;28;20624;-61
2023/08/29 20:53:48;;;;;;;6.07;2.30;;;20.00;98.70;;;;;;5052670;28;20295;-61
2023/08/29 20:56:15;;;;;;;2.60;1.80;;;20.00;98.70;;;;;;5057647;28;20202;-61
2023/08/29 20:58:42;;;;;;;5.37;2.50;;;20.00;98.60;;;;;;5057501;28;20201;-61
2023/08/29 21:01:10;;;;;;;3.77;2.17;;;20.00;98.60;;;;;;5060208;28;20249;-61
2023/08/29 21:03:37;;;;;;;2.37;2.07;;;20.00;98.50;;;;;;5051347;28;20679;-61
2023/08/29 21:06:05;;;;;;;7.63;2.50;;;20.00;98.50;;;;;;5044003;28;20288;-61
2023/08/29 21:08:32;;;;;;;5.03;2.20;;;20.00;98.40;;;;;;5041643;28;20223;-61
2023/08/29 21:10:59;;;;;;;3.40;2.27;;;20.00;98.40;;;;;;5047724;28;20213;-61
2023/08/29 21:13:26;;;;;;;3.10;2.47;;;20.00;98.40;;;;;;5043045;28;20215;-61
2023/08/29 21:15:53;;;;;;;5.47;2.40;;;20.00;98.40;;;;;;5040695;28;20202;-60
2023/08/29 21:18:20;;;;;;;6.50;2.50;;;20.00;98.30;;;;;;5044085;28;20207;-60
2023/08/29 21:21:01;;;;;;;2.00;1.83;;;20.00;98.30;;;;;;5047496;28;20642;-61
2023/08/29 21:23:28;;;;;;;2.50;1.70;;;20.00;98.20;;;;;;5045987;28;20201;-60
2023/08/29 21:25:55;;;;;;;2.87;1.87;;;20.00;98.10;;;;;;5042076;28;20331;-60
2023/08/29 21:28:26;;;;;;;5.73;1.50;;;20.00;98.00;;;;;;5042421;28;20205;-61
2023/08/29 21:30:54;;;;;;;1.73;1.40;;;20.00;97.80;;;;;;5046576;28;20215;-61
2023/08/29 21:33:22;;;;;;;2.67;1.20;;;19.90;97.60;;;;;;5051742;28;20218;-60
2023/08/29 21:35:51;;;;;;;6.87;1.40;;;20.00;97.50;;;;;;5051546;28;20194;-61
2023/08/29 21:38:18;;;;;;;2.00;1.43;;;19.90;97.40;;;;;;5046187;28;20205;-61
2023/08/29 21:40:45;;;;;;;2.30;1.23;;;19.90;97.30;;;;;;5043952;28;20221;-61
2023/08/29 21:43:23;;;;;;;1.73;1.00;;;19.90;97.20;;;;;;5042506;28;20288;-61
2023/08/29 21:45:55;;;;;;;3.40;0.90;;;19.80;97.10;;;;;;5041446;28;20293;-61
2023/08/29 21:48:22;;;;;;;2.53;0.93;;;19.80;97.10;;;;;;5046303;28;20210;-61
2023/08/29 21:50:52;;;;;;;1.83;1.37;;;19.80;97.00;;;;;;5043599;28;20226;-61
2023/08/29 21:53:19;;;;;;;1.77;0.80;;;19.80;96.90;;;;;;5041366;28;20249;-61
2023/08/29 21:55:46;;;;;;;2.67;1.00;;;19.80;96.90;;;;;;5040323;28;20205;-61
2023/08/29 21:58:18;;;;;;;2.93;1.30;;;19.80;96.80;;;;;;5038029;28;20713;-61
2023/08/29 22:00:53;;;;;;;4.90;1.00;;;19.80;96.70;;;;;;5044384;28;20255;-60
2023/08/29 22:03:22;;;;;;;1.30;0.90;;;19.70;96.60;;;;;;5039512;28;20206;-61
2023/08/29 22:05:50;;;;;;;1.63;1.40;;;19.70;96.50;;;;;;5039613;28;20262;-60
2023/08/29 22:08:18;;;;;;;1.23;0.93;;;19.70;96.50;;;;;;5040346;28;20209;-60
2023/08/29 22:10:46;;;;;;;1.23;0.80;;;19.70;96.50;;;;;;5041928;28;20282;-61
2023/08/29 22:13:13;;;;;;;2.20;0.90;;;19.70;96.40;;;;;;5045130;28;20642;-61
2023/08/29 22:15:40;;;;;;;3.53;1.10;;;19.60;96.30;;;;;;5044327;28;20213;-61
2023/08/29 22:18:07;;;;;;;3.20;1.30;;;19.60;96.30;;;;;;5038004;28;20590;-60
2023/08/29 22:20:34;;;;;;;2.97;0.90;;;19.60;96.10;;;;;;5039243;28;20533;-60
2023/08/29 22:23:02;;;;;;;2.43;0.70;;;19.60;96.20;;;;;;5042260;28;20526;-61
2023/08/29 22:25:29;;;;;;;1.40;1.00;;;19.60;96.00;;;;;;5043234;28;20609;-61
2023/08/29 22:27:56;;;;;;;1.53;0.87;;;19.50;95.90;;;;;;5039573;28;20662;-61
2023/08/29 22:30:24;;;;;;;4.53;0.90;;;19.50;95.70;;;;;;5037153;28;20200;-61
2023/08/29 22:32:51;;;;;;;4.57;1.00;;;19.50;95.40;;;;;;5056560;28;20259;-60
2023/08/29 22:35:19;;;;;;;3.40;0.97;;;19.50;95.30;;;;;;5045330;28;20280;-61
2023/08/29 22:37:47;;;;;;;2.70;0.60;;;19.40;95.20;;;;;;5041964;28;20206;-60
2023/08/29 22:40:14;;;;;;;3.77;1.10;;;19.40;95.00;;;;;;5038932;28;20251;-60
2023/08/29 22:42:41;;;;;;;2.17;0.80;;;19.40;95.00;;;;;;5041615;28;20209;-61
2023/08/29 22:45:09;;;;;;;2.63;0.80;;;19.30;95.00;;;;;;5046683;28;20649;-61
2023/08/29 22:47:36;;;;;;;3.37;1.10;;;19.30;95.00;;;;;;5041752;28;20686;-61
2023/08/29 22:50:03;;;;;;;2.03;0.90;;;19.30;95.10;;;;;;5038996;28;20225;-60
2023/08/29 22:52:30;;;;;;;3.60;0.80;;;19.30;95.00;;;;;;5040806;28;20205;-60
2023/08/29 22:54:57;;;;;;;3.37;1.03;;;19.20;94.80;;;;;;5039330;28;20239;-61
2023/08/29 22:57:25;;;;;;;4.67;1.23;;;19.20;95.00;;;;;;5042679;28;20193;-61
2023/08/29 22:59:51;;;;;;;2.80;1.20;;;19.20;95.10;;;;;;5042664;28;20197;-61
2023/08/29 23:02:18;;;;;;;2.20;0.70;;;19.10;95.10;;;;;;5042635;28;20641;-61
2023/08/29 23:04:45;;;;;;;2.93;1.07;;;19.10;95.10;;;;;;5041443;28;20524;-60
2023/08/29 23:07:12;;;;;;;1.87;0.90;;;19.10;95.20;;;;;;5043317;28;20204;-60
2023/08/29 23:09:42;;;;;;;2.93;0.97;;;19.10;95.20;;;;;;5048053;28;20685;-60
2023/08/29 23:12:09;;;;;;;1.67;0.90;;;19.10;95.30;;;;;;5042025;28;20205;-60
2023/08/29 23:14:36;;;;;;;0.63;0.63;;;19.10;95.30;;;;;;5047201;28;20454;-61
2023/08/29 23:17:06;;;;;;;1.70;1.00;;;19.10;95.40;;;;;;5040960;28;20768;-60
2023/08/29 23:19:33;;;;;;;2.67;0.80;;;19.10;95.50;;;;;;5046709;28;20205;-62
2023/08/29 23:22:00;;;;;;;3.43;1.30;;;19.20;95.50;;;;;;5046713;28;20232;-61
2023/08/29 23:24:27;;;;;;;3.23;1.40;;;19.20;95.40;;;;;;5038761;28;20267;-61
2023/08/29 23:26:54;;;;;;;3.03;0.97;;;19.20;95.50;;;;;;5041749;28;20263;-61
2023/08/29 23:29:21;;;;;;;2.23;0.90;;;19.20;95.60;;;;;;5043947;28;20201;-61
2023/08/29 23:31:48;;;;;;;1.33;1.03;;;19.30;95.80;;;;;;5039212;28;20285;-61
2023/08/29 23:34:16;;;;;;;1.13;1.00;;;19.20;95.90;;;;;;5035262;28;20224;-61
2023/08/29 23:36:43;;;;;;;1.90;1.00;;;19.30;96.00;;;;;;5043345;28;20210;-61
2023/08/29 23:39:10;;;;;;;2.10;0.93;;;19.30;96.10;;;;;;5041097;28;20210;-61
2023/08/29 23:41:37;;;;;;;3.13;1.07;;;19.40;95.90;;;;;;5039005;28;20208;-61
2023/08/29 23:44:04;;;;;;;2.83;1.00;;;19.30;95.70;;;;;;5035334;28;20256;-61
2023/08/29 23:46:32;;;;;;;2.70;1.13;;;19.30;95.60;;;;;;5040895;28;20198;-61
2023/08/29 23:48:59;;;;;;;3.87;1.00;;;19.30;95.60;;;;;;5042265;28;20239;-60
2023/08/29 23:51:25;;;;;;;1.30;0.70;;;19.20;95.70;;;;;;5039444;28;20198;-61
2023/08/29 23:53:52;;;;;;;2.43;1.43;;;19.30;95.80;;;;;;5039770;28;20237;-61
2023/08/29 23:56:19;;;;;;;2.57;1.20;;;19.20;95.90;;;;;;5041698;28;20197;-61
2023/08/29 23:58:46;;;;;;;4.40;1.10;;;19.20;96.00;;;;;;5040415;28;20207;-61
